Time;durP1;ratioP1;P1;durP2;ratioP2;P2;SDS_P1;SDS_P2;PMS_P1;PMS_P2;Temp;Humidity;BMP_temperature;BMP_pressure;BME280_temperature;BME280_humidity;BME280_pressure;Samples;Min_cycle;Max_cycle;Signal;HPM_P1;HPM_P2
2021/10/05 00:00:00;;;;;;;4.22;0.60;;;12.40;99.90;;;;;;5004300;28;20026;-65
2021/10/05 00:02:26;;;;;;;1.02;0.30;;;12.40;99.90;;;;;;5005875;28;20045;-65
2021/10/05 00:04:52;;;;;;;1.77;0.45;;;12.40;99.90;;;;;;5005787;28;20090;-64
2021/10/05 00:07:18;;;;;;;3.25;0.40;;;12.40;99.90;;;;;;5004114;28;20041;-63
2021/10/05 00:09:44;;;;;;;8.63;0.60;;;12.40;99.90;;;;;;4997615;28;20478;-63
2021/10/05 00:12:09;;;;;;;4.50;0.38;;;12.40;99.90;;;;;;5001812;28;20033;-63
2021/10/05 00:14:35;;;;;;;1.98;0.40;;;12.40;99.90;;;;;;5000154;28;20527;-63
2021/10/05 00:17:01;;;;;;;7.30;0.40;;;12.40;99.90;;;;;;4997539;28;20176;-64
2021/10/05 00:19:26;;;;;;;1.77;0.50;;;12.30;99.90;;;;;;5000973;28;20046;-63
2021/10/05 00:21:52;;;;;;;4.15;0.40;;;12.30;99.90;;;;;;5003617;28;20034;-64
2021/10/05 00:24:18;;;;;;;0.77;0.30;;;12.30;99.90;;;;;;5003017;28;20116;-63
2021/10/05 00:26:53;;;;;;;6.72;0.95;;;12.30;99.90;;;;;;5001482;28;20038;-61
2021/10/05 00:29:18;;;;;;;4.70;1.10;;;12.30;99.90;;;;;;4999725;28;20053;-63
2021/10/05 00:31:44;;;;;;;2.20;0.45;;;12.40;99.90;;;;;;5002016;28;20037;-63
2021/10/05 00:34:10;;;;;;;4.47;0.40;;;12.40;99.90;;;;;;5002602;28;20041;-63
2021/10/05 00:36:36;;;;;;;3.78;0.30;;;12.40;99.90;;;;;;5000610;28;20039;-63
2021/10/05 00:39:02;;;;;;;4.25;0.20;;;12.40;99.90;;;;;;5004268;28;20030;-63
2021/10/05 00:41:27;;;;;;;9.70;0.63;;;12.50;99.90;;;;;;4998904;28;20030;-64
2021/10/05 00:44:00;;;;;;;1.50;0.32;;;12.50;99.90;;;;;;4999971;28;20057;-64
2021/10/05 00:46:27;;;;;;;3.78;1.00;;;12.50;99.90;;;;;;5003272;28;20029;-65
2021/10/05 00:48:54;;;;;;;1.27;0.32;;;12.40;99.90;;;;;;5001639;28;20029;-63
2021/10/05 00:51:21;;;;;;;0.98;0.20;;;12.40;99.90;;;;;;5003551;28;20034;-63
2021/10/05 00:53:47;;;;;;;2.60;0.45;;;12.50;99.90;;;;;;5002272;28;20076;-62
2021/10/05 00:56:12;;;;;;;2.75;0.40;;;12.50;99.90;;;;;;5002093;28;20054;-62
2021/10/05 00:58:39;;;;;;;2.85;0.85;;;12.50;99.90;;;;;;5001902;28;20048;-63
2021/10/05 01:01:04;;;;;;;1.02;0.30;;;12.50;99.90;;;;;;5001076;28;20019;-64
2021/10/05 01:03:30;;;;;;;1.50;0.20;;;12.50;99.90;;;;;;5001996;28;20033;-64
2021/10/05 01:05:56;;;;;;;5.40;0.50;;;12.40;99.90;;;;;;5001002;28;20498;-65
2021/10/05 01:08:22;;;;;;;2.45;0.55;;;12.40;99.90;;;;;;5003650;28;20070;-64
2021/10/05 01:10:48;;;;;;;1.27;0.50;;;12.40;99.90;;;;;;5001442;28;20037;-65
2021/10/05 01:13:13;;;;;;;4.03;0.40;;;12.30;99.90;;;;;;5000892;28;20464;-66
2021/10/05 01:15:39;;;;;;;2.60;0.35;;;12.30;99.90;;;;;;5000784;28;20121;-64
2021/10/05 01:18:05;;;;;;;4.40;0.28;;;12.30;99.90;;;;;;4999367;28;20034;-63
2021/10/05 01:20:45;;;;;;;0.82;0.30;;;12.30;99.90;;;;;;4997729;28;20074;-66
2021/10/05 01:23:11;;;;;;;4.30;0.38;;;12.30;99.90;;;;;;4998353;28;20041;-64
2021/10/05 01:25:36;;;;;;;2.92;0.30;;;12.30;99.90;;;;;;5001760;28;20042;-66
2021/10/05 01:28:02;;;;;;;3.33;0.50;;;12.20;99.90;;;;;;4999060;28;20069;-64
2021/10/05 01:30:28;;;;;;;0.85;0.20;;;12.20;99.90;;;;;;4999790;28;20524;-65
2021/10/05 01:32:55;;;;;;;1.35;0.30;;;12.30;99.90;;;;;;5001814;28;20478;-64
2021/10/05 01:35:21;;;;;;;5.93;0.38;;;12.30;99.90;;;;;;5000025;28;20030;-63
2021/10/05 01:37:46;;;;;;;1.00;0.20;;;12.30;99.90;;;;;;5000343;28;20038;-61
2021/10/05 01:40:12;;;;;;;1.17;0.20;;;12.40;99.90;;;;;;5000521;28;20034;-65
2021/10/05 01:42:39;;;;;;;2.65;0.68;;;12.40;99.90;;;;;;4998800;28;20042;-65
2021/10/05 01:45:05;;;;;;;12.55;0.65;;;12.40;99.90;;;;;;4998124;28;20030;-64
2021/10/05 01:47:31;;;;;;;3.00;0.35;;;12.50;99.90;;;;;;5001730;28;20409;-65
2021/10/05 01:49:57;;;;;;;1.42;0.30;;;12.50;99.90;;;;;;4998289;28;20089;-65
2021/10/05 01:52:23;;;;;;;1.77;0.35;;;12.40;99.90;;;;;;5001276;28;20045;-65
2021/10/05 01:54:48;;;;;;;7.03;0.70;;;12.40;99.90;;;;;;4999038;28;20042;-65
2021/10/05 01:57:14;;;;;;;1.25;0.20;;;12.40;99.90;;;;;;5000333;28;20031;-63
2021/10/05 01:59:40;;;;;;;2.78;0.85;;;12.40;99.90;;;;;;4998305;28;20397;-63
2021/10/05 02:02:05;;;;;;;4.13;0.20;;;12.30;99.90;;;;;;4998977;28;20108;-65
2021/10/05 02:04:31;;;;;;;1.30;0.40;;;12.30;99.90;;;;;;5000065;28;20485;-65
2021/10/05 02:06:56;;;;;;;8.13;0.40;;;12.30;99.90;;;;;;4996300;28;20109;-62
2021/10/05 02:09:22;;;;;;;5.30;0.38;;;12.30;99.90;;;;;;5000647;28;20045;-63
2021/10/05 02:11:48;;;;;;;1.90;0.30;;;12.30;99.90;;;;;;4996015;28;20401;-62
2021/10/05 02:14:14;;;;;;;1.00;0.47;;;12.30;99.90;;;;;;4998181;28;20022;-63
2021/10/05 02:16:40;;;;;;;2.42;0.50;;;12.30;99.90;;;;;;4998326;28;20038;-63
2021/10/05 02:19:06;;;;;;;2.95;0.20;;;12.30;99.90;;;;;;4999850;28;20820;-63
2021/10/05 02:21:33;;;;;;;4.40;1.33;;;12.40;99.90;;;;;;5001080;28;20026;-63
2021/10/05 02:26:43;;;;;;;1.70;0.20;;;12.40;99.90;;;;;;4999739;28;20049;-63
2021/10/05 02:29:08;;;;;;;2.78;0.30;;;12.40;99.90;;;;;;4998363;28;20034;-64
2021/10/05 02:31:34;;;;;;;6.53;0.22;;;12.40;99.90;;;;;;5000817;28;20026;-64
2021/10/05 02:34:00;;;;;;;4.07;0.32;;;12.40;99.90;;;;;;4997826;28;20073;-64
2021/10/05 02:36:26;;;;;;;4.45;0.50;;;12.50;99.90;;;;;;5001657;28;20754;-65
2021/10/05 02:38:52;;;;;;;3.08;0.30;;;12.50;99.90;;;;;;4997722;28;20057;-64
2021/10/05 02:41:18;;;;;;;3.25;0.80;;;12.50;99.90;;;;;;5000647;28;20039;-64
2021/10/05 02:43:43;;;;;;;5.88;0.68;;;12.50;99.90;;;;;;4999106;28;20042;-64
2021/10/05 02:46:09;;;;;;;3.25;0.45;;;12.50;99.90;;;;;;4997867;28;20030;-63
2021/10/05 02:48:35;;;;;;;1.17;0.22;;;12.50;99.90;;;;;;4999729;28;20049;-63
2021/10/05 02:51:01;;;;;;;4.68;0.38;;;12.40;99.90;;;;;;4998237;28;20387;-63
2021/10/05 02:53:27;;;;;;;4.20;0.20;;;12.30;99.90;;;;;;4999918;28;20053;-63
2021/10/05 02:55:54;;;;;;;3.28;0.63;;;12.20;99.90;;;;;;4998363;28;20434;-64
2021/10/05 02:58:20;;;;;;;0.57;0.25;;;12.20;99.90;;;;;;5000353;28;20030;-65
2021/10/05 03:00:46;;;;;;;2.00;0.30;;;12.20;99.90;;;;;;4997551;28;20049;-64
2021/10/05 03:03:12;;;;;;;0.77;0.25;;;12.20;99.90;;;;;;4997179;28;20045;-62
2021/10/05 03:05:38;;;;;;;2.75;0.50;;;12.10;99.90;;;;;;5000343;28;20049;-62
2021/10/05 03:08:07;;;;;;;1.80;0.20;;;12.10;99.90;;;;;;5002276;28;20045;-62
2021/10/05 03:10:34;;;;;;;2.00;1.03;;;12.10;99.90;;;;;;5003109;28;20121;-65
2021/10/05 03:13:00;;;;;;;1.65;0.38;;;12.10;99.90;;;;;;5002307;28;20062;-65
2021/10/05 03:15:25;;;;;;;2.13;0.20;;;12.00;99.90;;;;;;5004757;28;20121;-63
2021/10/05 03:17:51;;;;;;;2.10;0.35;;;12.00;99.90;;;;;;5000883;28;20038;-65
2021/10/05 03:20:17;;;;;;;3.80;0.40;;;11.90;99.90;;;;;;5001341;28;20044;-64
2021/10/05 03:22:42;;;;;;;2.05;0.28;;;12.00;99.90;;;;;;5004555;28;20093;-62
2021/10/05 03:25:08;;;;;;;4.07;0.52;;;11.90;99.90;;;;;;5001513;28;20034;-63
2021/10/05 03:27:35;;;;;;;3.10;0.30;;;11.90;99.90;;;;;;5003025;28;20141;-64
2021/10/05 03:30:05;;;;;;;3.65;0.30;;;12.00;99.90;;;;;;5002064;28;20038;-62
2021/10/05 03:32:31;;;;;;;3.45;0.43;;;11.90;99.90;;;;;;5004786;28;20045;-63
2021/10/05 03:34:56;;;;;;;2.35;0.50;;;11.90;99.90;;;;;;5004062;28;20033;-64
2021/10/05 03:37:22;;;;;;;1.45;0.40;;;12.00;99.90;;;;;;4999969;28;20035;-63
2021/10/05 03:39:48;;;;;;;2.47;0.10;;;12.00;99.90;;;;;;5004635;28;20572;-63
2021/10/05 03:42:14;;;;;;;4.57;0.50;;;12.00;99.90;;;;;;5001962;28;20757;-63
2021/10/05 03:44:40;;;;;;;15.45;0.60;;;12.10;99.90;;;;;;5001258;28;20041;-62
2021/10/05 03:47:05;;;;;;;7.18;1.05;;;12.10;99.90;;;;;;5005174;28;20026;-63
2021/10/05 03:49:31;;;;;;;5.22;0.40;;;12.10;99.90;;;;;;5000971;28;20054;-62
2021/10/05 03:51:57;;;;;;;1.88;0.40;;;12.10;99.90;;;;;;5000563;28;20026;-62
2021/10/05 03:54:22;;;;;;;3.00;0.20;;;12.10;99.90;;;;;;4999927;28;20390;-63
2021/10/05 03:56:48;;;;;;;3.17;0.45;;;12.10;99.90;;;;;;5004261;28;20129;-62
2021/10/05 03:59:16;;;;;;;3.78;0.70;;;12.10;99.90;;;;;;4998817;28;20029;-62
2021/10/05 04:01:45;;;;;;;1.42;0.47;;;12.10;99.90;;;;;;5003236;28;20165;-63
2021/10/05 04:04:12;;;;;;;1.38;0.63;;;12.10;99.90;;;;;;5005556;28;20037;-63
2021/10/05 04:06:37;;;;;;;2.15;0.30;;;12.10;99.90;;;;;;5004335;28;20037;-62
2021/10/05 04:09:05;;;;;;;3.75;0.40;;;12.10;99.90;;;;;;5001863;28;20117;-64
2021/10/05 04:11:32;;;;;;;1.48;0.45;;;12.10;99.90;;;;;;5001410;28;20026;-62
2021/10/05 04:13:57;;;;;;;3.03;0.40;;;12.00;99.90;;;;;;4999793;28;20109;-62
2021/10/05 04:16:23;;;;;;;3.13;0.30;;;12.10;99.90;;;;;;5001771;28;20507;-64
2021/10/05 04:18:48;;;;;;;2.53;0.52;;;12.00;99.90;;;;;;4998034;28;20065;-62
2021/10/05 04:21:14;;;;;;;2.13;0.40;;;12.10;99.90;;;;;;4999893;28;20746;-62
2021/10/05 04:23:39;;;;;;;1.38;0.40;;;12.10;99.90;;;;;;5000769;28;20117;-62
2021/10/05 04:26:06;;;;;;;2.65;0.55;;;12.10;99.90;;;;;;5002293;28;20486;-62
2021/10/05 04:28:32;;;;;;;3.45;0.45;;;12.10;99.90;;;;;;5001244;28;20391;-62
2021/10/05 04:30:58;;;;;;;1.33;0.30;;;12.10;99.90;;;;;;4999892;28;20126;-62
2021/10/05 04:33:23;;;;;;;2.08;0.93;;;12.00;99.90;;;;;;4999283;28;20536;-62
2021/10/05 04:35:49;;;;;;;2.40;0.10;;;12.00;99.90;;;;;;4996265;28;20490;-63
2021/10/05 04:38:14;;;;;;;2.83;0.38;;;12.00;99.90;;;;;;5003906;28;20122;-62
2021/10/05 04:40:40;;;;;;;4.55;0.60;;;12.10;99.90;;;;;;4997090;28;20045;-63
2021/10/05 04:43:05;;;;;;;1.30;0.30;;;12.10;99.90;;;;;;5000341;28;20401;-62
2021/10/05 04:45:31;;;;;;;4.90;0.30;;;12.00;99.90;;;;;;4998654;28;20096;-63
2021/10/05 04:47:56;;;;;;;2.92;0.20;;;12.00;99.90;;;;;;5001156;28;20724;-63
2021/10/05 04:50:22;;;;;;;1.65;0.30;;;12.00;99.90;;;;;;5002602;28;20085;-62
2021/10/05 04:52:48;;;;;;;2.67;0.40;;;12.00;99.90;;;;;;4997204;28;20117;-62
2021/10/05 04:55:13;;;;;;;1.00;0.30;;;12.00;99.90;;;;;;4999350;28;20030;-62
2021/10/05 04:57:39;;;;;;;1.17;0.80;;;12.10;99.90;;;;;;4998968;28;20835;-62
2021/10/05 05:00:06;;;;;;;3.08;0.20;;;12.10;99.90;;;;;;5002264;28;20425;-64
2021/10/05 05:02:32;;;;;;;1.85;0.30;;;12.00;99.90;;;;;;5000948;28;20102;-62
2021/10/05 05:04:57;;;;;;;1.65;0.30;;;12.00;99.90;;;;;;5001067;28;20138;-62
2021/10/05 05:07:23;;;;;;;2.58;0.50;;;12.00;99.90;;;;;;4993007;28;20521;-61
2021/10/05 05:09:49;;;;;;;2.78;0.65;;;12.00;99.90;;;;;;4989716;28;20085;-63
2021/10/05 05:12:14;;;;;;;4.38;0.65;;;12.00;99.90;;;;;;4988371;28;20153;-63
2021/10/05 05:14:40;;;;;;;2.53;0.40;;;11.90;99.90;;;;;;5002561;28;20041;-62
2021/10/05 05:17:06;;;;;;;3.22;0.47;;;11.90;99.90;;;;;;5000684;28;20035;-63
2021/10/05 05:19:31;;;;;;;2.15;0.43;;;12.00;99.90;;;;;;5006391;28;20107;-62
2021/10/05 05:21:59;;;;;;;1.40;0.40;;;12.00;99.90;;;;;;5008768;28;20038;-62
2021/10/05 05:24:28;;;;;;;1.80;0.55;;;12.00;99.90;;;;;;5007021;28;20119;-63
2021/10/05 05:26:54;;;;;;;3.03;0.55;;;12.00;99.90;;;;;;5006039;28;20092;-62
2021/10/05 05:29:21;;;;;;;2.53;0.73;;;12.00;99.90;;;;;;5006092;28;20113;-63
2021/10/05 05:31:48;;;;;;;3.53;0.50;;;12.00;99.90;;;;;;5007272;28;20034;-62
2021/10/05 05:34:14;;;;;;;0.80;0.10;;;11.90;99.90;;;;;;5007695;28;20474;-61
2021/10/05 05:36:40;;;;;;;1.45;0.20;;;11.90;99.90;;;;;;5007025;28;20030;-62
2021/10/05 05:39:05;;;;;;;3.70;1.08;;;11.90;99.90;;;;;;5006992;28;20045;-62
2021/10/05 05:41:31;;;;;;;1.40;0.15;;;11.90;99.90;;;;;;5005475;28;20096;-62
2021/10/05 05:43:57;;;;;;;1.05;0.28;;;11.90;99.90;;;;;;5007441;28;20041;-62
2021/10/05 05:46:22;;;;;;;0.85;0.50;;;11.90;99.90;;;;;;5007297;28;20092;-64
2021/10/05 05:48:48;;;;;;;3.47;0.20;;;11.90;99.90;;;;;;5004839;28;20398;-62
2021/10/05 05:51:14;;;;;;;1.45;0.20;;;11.90;99.90;;;;;;5005163;28;20082;-63
2021/10/05 05:53:39;;;;;;;3.75;0.30;;;11.90;99.90;;;;;;5004891;28;20030;-62
2021/10/05 05:56:05;;;;;;;3.75;0.75;;;11.90;99.90;;;;;;5007212;28;20092;-62
2021/10/05 05:58:31;;;;;;;1.55;0.30;;;11.90;99.90;;;;;;5007304;28;20045;-64
2021/10/05 06:00:56;;;;;;;3.20;1.27;;;11.80;99.90;;;;;;5006114;28;20037;-62
2021/10/05 06:03:22;;;;;;;1.20;0.13;;;11.90;99.90;;;;;;5007792;28;20180;-62
2021/10/05 06:05:47;;;;;;;3.28;0.25;;;11.80;99.90;;;;;;5005878;28;20029;-62
2021/10/05 06:08:13;;;;;;;0.80;0.32;;;11.90;99.90;;;;;;5005788;28;20034;-62
2021/10/05 06:10:39;;;;;;;0.35;0.13;;;11.80;99.90;;;;;;5006613;28;20405;-62
2021/10/05 06:13:05;;;;;;;1.23;0.20;;;11.80;99.90;;;;;;5006775;28;20493;-63
2021/10/05 06:15:32;;;;;;;2.47;0.20;;;11.80;99.90;;;;;;5005988;28;20034;-63
2021/10/05 06:17:58;;;;;;;1.30;0.20;;;11.90;99.90;;;;;;4985522;28;20053;-66
2021/10/05 06:20:25;;;;;;;0.30;0.20;;;11.90;99.90;;;;;;4992203;28;20541;-63
2021/10/05 06:22:51;;;;;;;1.10;0.30;;;11.90;99.90;;;;;;4995215;28;20058;-62
2021/10/05 06:25:19;;;;;;;1.08;0.20;;;11.90;99.90;;;;;;5000308;28;20033;-62
2021/10/05 06:27:46;;;;;;;2.00;0.20;;;11.90;99.90;;;;;;5004967;28;20524;-62
2021/10/05 06:30:14;;;;;;;3.95;0.22;;;11.90;99.90;;;;;;4988007;28;20574;-62
2021/10/05 06:32:40;;;;;;;1.70;0.47;;;12.00;99.90;;;;;;4986479;28;20502;-63
2021/10/05 06:35:07;;;;;;;3.50;0.40;;;12.00;99.90;;;;;;4997788;28;20030;-62
2021/10/05 06:37:32;;;;;;;3.75;0.30;;;12.00;99.90;;;;;;5006447;28;20045;-63
2021/10/05 06:39:58;;;;;;;4.32;0.63;;;12.00;99.90;;;;;;4986407;28;20520;-62
2021/10/05 06:42:24;;;;;;;1.70;0.68;;;12.00;99.90;;;;;;4990701;28;20049;-62
2021/10/05 06:44:49;;;;;;;1.75;0.30;;;12.00;99.90;;;;;;4990183;28;20069;-63
2021/10/05 06:47:15;;;;;;;2.10;0.30;;;12.00;99.90;;;;;;4990528;28;20049;-62
2021/10/05 06:49:41;;;;;;;2.63;0.20;;;12.00;99.90;;;;;;4991598;28;20388;-68
2021/10/05 06:52:07;;;;;;;6.32;1.30;;;12.00;99.90;;;;;;4992703;28;20194;-63
2021/10/05 06:54:33;;;;;;;3.65;0.20;;;12.10;99.90;;;;;;4990390;28;20131;-63
2021/10/05 06:56:59;;;;;;;2.67;0.28;;;12.10;99.90;;;;;;4989676;28;20162;-62
2021/10/05 06:59:25;;;;;;;0.98;0.30;;;12.10;99.90;;;;;;4990482;28;20071;-62
2021/10/05 07:01:51;;;;;;;3.08;0.30;;;12.20;99.90;;;;;;4993178;28;20038;-62
2021/10/05 07:04:17;;;;;;;4.30;0.20;;;12.30;99.90;;;;;;4993189;28;20030;-62
2021/10/05 07:06:44;;;;;;;1.40;0.30;;;12.40;99.90;;;;;;4990851;28;20050;-63
2021/10/05 07:09:10;;;;;;;1.25;0.20;;;12.40;99.90;;;;;;5005296;28;20158;-63
2021/10/05 07:11:36;;;;;;;0.75;0.30;;;12.40;99.90;;;;;;5005859;28;20489;-62
2021/10/05 07:14:02;;;;;;;1.52;0.13;;;12.50;99.90;;;;;;5009401;28;20049;-62
2021/10/05 07:16:28;;;;;;;4.75;1.23;;;12.50;99.90;;;;;;5011714;28;20030;-62
2021/10/05 07:18:54;;;;;;;6.35;1.08;;;12.60;99.90;;;;;;5008458;28;20569;-62
2021/10/05 07:21:23;;;;;;;6.13;1.10;;;12.60;99.90;;;;;;5010359;28;20030;-63
2021/10/05 07:23:49;;;;;;;2.63;0.43;;;12.70;99.90;;;;;;5010350;28;20034;-66
2021/10/05 07:26:16;;;;;;;3.70;0.40;;;12.80;99.90;;;;;;5010130;28;20025;-62
2021/10/05 07:28:41;;;;;;;1.95;0.40;;;12.90;99.90;;;;;;5010268;28;20046;-62
2021/10/05 07:31:07;;;;;;;2.15;0.75;;;13.00;99.90;;;;;;5011297;28;20033;-62
2021/10/05 07:33:32;;;;;;;2.58;0.40;;;13.10;99.90;;;;;;5009556;28;20052;-62
2021/10/05 07:35:58;;;;;;;2.03;0.40;;;13.10;99.90;;;;;;5008567;28;20049;-62
2021/10/05 07:38:23;;;;;;;3.85;0.60;;;13.20;99.90;;;;;;5007969;28;20113;-62
2021/10/05 07:40:49;;;;;;;7.32;0.82;;;13.20;99.90;;;;;;5009846;28;20769;-62
2021/10/05 07:43:15;;;;;;;1.95;0.47;;;13.20;99.90;;;;;;5008770;28;20701;-63
2021/10/05 07:45:41;;;;;;;6.30;0.70;;;13.20;99.90;;;;;;5008489;28;20041;-62
2021/10/05 07:48:07;;;;;;;3.10;0.30;;;13.30;99.90;;;;;;5008463;28;20125;-62
2021/10/05 07:50:34;;;;;;;3.20;0.57;;;13.30;99.90;;;;;;5009650;28;20566;-62
2021/10/05 07:53:01;;;;;;;3.70;0.40;;;13.40;99.90;;;;;;5007608;28;20045;-63
2021/10/05 07:55:31;;;;;;;1.98;0.70;;;13.40;99.90;;;;;;5009572;28;20038;-63
2021/10/05 07:57:57;;;;;;;1.60;0.30;;;13.50;99.90;;;;;;5008019;28;20029;-62
2021/10/05 08:00:23;;;;;;;1.73;0.70;;;13.60;99.90;;;;;;5008990;28;20489;-63
2021/10/05 08:02:48;;;;;;;1.70;0.40;;;13.60;99.90;;;;;;5010095;28;20211;-63
2021/10/05 08:05:19;;;;;;;2.00;0.75;;;13.70;99.90;;;;;;5010312;28;20121;-63
2021/10/05 08:07:46;;;;;;;1.55;0.50;;;13.80;99.90;;;;;;5006932;28;20046;-63
2021/10/05 08:10:13;;;;;;;2.60;0.88;;;13.80;99.90;;;;;;5008370;28;20030;-62
2021/10/05 08:12:40;;;;;;;1.67;0.50;;;13.90;99.90;;;;;;5008960;28;20060;-64
2021/10/05 08:15:07;;;;;;;3.90;0.50;;;13.90;99.90;;;;;;5007795;28;20121;-62
2021/10/05 08:17:33;;;;;;;4.70;0.50;;;14.00;99.90;;;;;;5009727;28;20153;-62
2021/10/05 08:19:59;;;;;;;1.45;0.47;;;14.10;99.90;;;;;;5009611;28;20132;-63
2021/10/05 08:22:24;;;;;;;1.65;0.40;;;14.20;99.90;;;;;;5007777;28;20477;-63
2021/10/05 08:24:50;;;;;;;3.13;0.52;;;14.30;99.90;;;;;;5006315;28;21424;-62
2021/10/05 08:27:16;;;;;;;2.03;0.43;;;14.30;99.90;;;;;;5007372;28;20049;-63
2021/10/05 08:29:44;;;;;;;2.38;0.50;;;14.40;99.90;;;;;;5007643;28;20369;-62
2021/10/05 08:32:10;;;;;;;0.90;0.30;;;14.40;99.90;;;;;;5007404;28;20037;-62
2021/10/05 08:34:37;;;;;;;4.13;0.52;;;14.50;99.90;;;;;;5006777;28;20080;-62
2021/10/05 08:37:03;;;;;;;3.05;0.45;;;14.50;99.90;;;;;;5007144;28;20038;-64
2021/10/05 08:39:28;;;;;;;3.65;0.60;;;14.50;99.90;;;;;;5008792;28;20045;-62
2021/10/05 08:41:54;;;;;;;4.75;0.98;;;14.60;99.90;;;;;;5006573;28;20026;-62
2021/10/05 08:44:22;;;;;;;3.22;0.50;;;14.70;99.90;;;;;;5007099;28;20038;-62
2021/10/05 08:46:48;;;;;;;1.67;0.45;;;14.80;99.90;;;;;;5006333;28;20041;-62
2021/10/05 08:49:14;;;;;;;1.15;0.40;;;14.80;99.90;;;;;;5006535;28;20547;-62
2021/10/05 08:51:40;;;;;;;1.85;0.60;;;14.90;99.90;;;;;;5005865;28;20030;-62
2021/10/05 08:54:09;;;;;;;1.90;1.20;;;15.00;99.90;;;;;;5007155;28;20029;-63
2021/10/05 08:56:35;;;;;;;5.40;0.52;;;15.00;99.90;;;;;;5008219;28;20030;-62
2021/10/05 08:59:01;;;;;;;1.58;0.60;;;15.00;99.90;;;;;;5006606;28;20022;-62
2021/10/05 09:01:34;;;;;;;3.53;0.70;;;15.10;99.90;;;;;;5006726;28;20061;-62
2021/10/05 09:04:01;;;;;;;1.50;0.45;;;15.20;99.90;;;;;;5006582;28;20121;-62
2021/10/05 09:06:27;;;;;;;0.95;0.43;;;15.20;99.90;;;;;;5008232;28;20685;-62
2021/10/05 09:08:53;;;;;;;2.08;0.75;;;15.30;99.90;;;;;;5006895;28;20038;-62
2021/10/05 09:11:24;;;;;;;1.15;0.40;;;15.30;99.90;;;;;;5007717;28;20417;-62
2021/10/05 09:13:55;;;;;;;2.97;0.47;;;15.40;99.90;;;;;;5005357;28;20107;-63
2021/10/05 09:16:24;;;;;;;2.03;0.90;;;15.50;99.90;;;;;;5007299;28;20038;-62
2021/10/05 09:19:02;;;;;;;4.72;0.70;;;15.50;99.90;;;;;;5005948;28;20030;-62
2021/10/05 09:21:46;;;;;;;1.77;0.50;;;15.50;99.90;;;;;;5006887;28;20033;-62
2021/10/05 09:24:32;;;;;;;5.28;0.40;;;15.60;99.90;;;;;;5006803;28;20512;-62
2021/10/05 09:26:59;;;;;;;4.05;0.50;;;15.60;99.90;;;;;;5006350;28;20084;-64
2021/10/05 09:29:29;;;;;;;2.47;0.50;;;15.70;99.90;;;;;;5006272;28;20042;-64
2021/10/05 09:32:04;;;;;;;1.50;0.40;;;15.70;99.90;;;;;;4988898;28;20473;-64
2021/10/05 09:34:49;;;;;;;2.67;0.82;;;15.80;99.90;;;;;;4987143;28;20048;-64
2021/10/05 09:37:23;;;;;;;1.92;0.47;;;15.90;99.90;;;;;;4990612;28;20382;-63
2021/10/05 09:39:53;;;;;;;4.15;0.70;;;15.90;99.90;;;;;;5005334;28;20038;-61
2021/10/05 09:42:40;;;;;;;4.10;0.30;;;15.90;99.90;;;;;;5004829;28;20053;-62
2021/10/05 09:45:10;;;;;;;3.17;0.45;;;15.90;99.90;;;;;;4987471;28;20029;-62
2021/10/05 09:47:47;;;;;;;1.35;0.20;;;16.00;99.90;;;;;;4986140;28;20046;-62
2021/10/05 09:50:24;;;;;;;0.93;0.10;;;16.10;99.90;;;;;;4986622;28;20035;-62
2021/10/05 09:52:53;;;;;;;5.00;0.40;;;16.10;99.90;;;;;;4986024;28;20528;-63
2021/10/05 09:55:26;;;;;;;0.90;0.30;;;16.20;99.90;;;;;;4987736;28;20042;-63
2021/10/05 09:57:53;;;;;;;4.50;0.50;;;16.30;99.90;;;;;;4988298;28;20045;-63
2021/10/05 10:00:20;;;;;;;1.20;0.20;;;16.30;99.90;;;;;;4987066;28;20085;-63
2021/10/05 10:02:46;;;;;;;1.48;0.70;;;16.30;99.90;;;;;;4986967;28;20030;-62
2021/10/05 10:05:17;;;;;;;3.13;0.20;;;16.40;99.90;;;;;;4986177;28;20038;-63
2021/10/05 10:07:45;;;;;;;4.45;0.30;;;16.40;99.90;;;;;;4988190;28;20121;-63
2021/10/05 10:10:16;;;;;;;2.58;0.20;;;16.50;99.90;;;;;;4987707;28;20034;-61
2021/10/05 10:12:46;;;;;;;3.42;0.40;;;16.60;99.90;;;;;;4987063;28;20069;-63
2021/10/05 10:15:13;;;;;;;4.47;0.25;;;16.60;99.90;;;;;;4986813;28;20126;-64
2021/10/05 10:17:39;;;;;;;2.75;0.20;;;16.60;99.90;;;;;;4986541;28;20565;-62
2021/10/05 10:20:07;;;;;;;3.47;0.20;;;16.60;99.90;;;;;;4985357;28;20046;-61
2021/10/05 10:22:46;;;;;;;6.20;0.77;;;16.70;99.90;;;;;;4977742;28;20049;-60
2021/10/05 10:25:26;;;;;;;5.38;0.30;;;16.70;99.90;;;;;;4983727;28;20510;-62
2021/10/05 10:27:57;;;;;;;3.20;0.28;;;16.80;99.90;;;;;;4998126;28;20400;-62
2021/10/05 10:30:27;;;;;;;1.20;0.20;;;16.90;99.90;;;;;;5002888;28;20049;-62
2021/10/05 10:32:57;;;;;;;;;;;17.00;99.90;;;;;;5004501;28;20089;-63
2021/10/05 10:35:23;;;;;;;1.98;0.30;;;17.00;99.90;;;;;;5015906;28;19917;-62
2021/10/05 10:37:51;;;;;;;1.58;0.28;;;17.10;99.90;;;;;;5007529;28;20037;-68
2021/10/05 10:40:30;;;;;;;2.03;0.32;;;17.20;99.90;;;;;;5015120;28;20061;-63
2021/10/05 10:42:56;;;;;;;4.60;0.20;;;17.20;99.90;;;;;;5013625;28;20061;-63
2021/10/05 10:45:22;;;;;;;1.55;0.17;;;17.30;99.90;;;;;;5008069;28;20674;-63
2021/10/05 10:47:54;;;;;;;2.80;0.20;;;17.20;99.90;;;;;;5001300;28;20045;-62
2021/10/05 10:50:20;;;;;;;4.10;0.40;;;17.10;99.90;;;;;;4954009;28;20069;-62
2021/10/05 10:52:48;;;;;;;2.38;0.30;;;17.00;99.90;;;;;;4962669;28;20039;-68
2021/10/05 10:55:18;;;;;;;5.82;0.30;;;16.90;99.90;;;;;;4964082;28;20037;-63
2021/10/05 10:57:55;;;;;;;2.22;0.43;;;16.90;99.90;;;;;;4962426;28;20134;-63
2021/10/05 11:00:30;;;;;;;2.70;0.50;;;16.80;99.90;;;;;;4962086;28;20042;-62
2021/10/05 11:03:00;;;;;;;0.73;0.25;;;16.70;99.90;;;;;;4962882;28;20050;-62
2021/10/05 11:05:30;;;;;;;2.80;0.40;;;16.60;99.90;;;;;;4964346;28;20093;-63
2021/10/05 11:07:57;;;;;;;1.88;0.40;;;16.60;99.90;;;;;;4963229;28;20045;-63
2021/10/05 11:10:29;;;;;;;2.63;0.25;;;16.60;99.90;;;;;;4966163;28;20031;-64
2021/10/05 11:12:57;;;;;;;2.15;0.30;;;16.60;99.90;;;;;;4958672;28;20426;-63
2021/10/05 11:15:31;;;;;;;1.52;0.77;;;16.60;99.90;;;;;;4965905;28;20030;-63
2021/10/05 11:18:03;;;;;;;2.20;0.43;;;16.70;99.90;;;;;;4966706;28;20505;-62
2021/10/05 11:20:29;;;;;;;4.57;0.32;;;16.80;99.90;;;;;;4964379;28;20050;-62
2021/10/05 11:22:54;;;;;;;3.50;0.22;;;16.90;99.90;;;;;;4965351;28;20046;-62
2021/10/05 11:25:20;;;;;;;2.38;0.60;;;17.00;99.90;;;;;;4966877;28;20034;-61
2021/10/05 11:27:46;;;;;;;5.20;0.30;;;16.80;99.90;;;;;;4968542;28;20045;-65
2021/10/05 11:30:11;;;;;;;3.65;0.25;;;16.80;99.90;;;;;;4968043;28;20031;-62
2021/10/05 11:32:37;;;;;;;2.08;0.13;;;16.60;99.90;;;;;;4968777;28;20042;-62
2021/10/05 11:35:03;;;;;;;1.65;0.30;;;16.50;99.90;;;;;;4968366;28;20510;-62
2021/10/05 11:37:28;;;;;;;2.22;0.52;;;16.20;99.90;;;;;;4961344;28;20043;-62
2021/10/05 11:39:56;;;;;;;2.40;0.30;;;16.00;99.90;;;;;;4971080;28;20037;-65
2021/10/05 11:42:24;;;;;;;1.90;0.68;;;16.00;99.90;;;;;;4970635;28;20506;-63
2021/10/05 11:45:00;;;;;;;3.78;0.40;;;15.90;99.90;;;;;;4969923;28;20691;-63
2021/10/05 11:47:27;;;;;;;6.22;0.75;;;15.80;99.90;;;;;;4970286;28;20045;-64
2021/10/05 11:49:58;;;;;;;1.60;0.20;;;15.90;99.90;;;;;;4969146;28;20051;-65
2021/10/05 11:52:29;;;;;;;3.40;0.40;;;15.90;99.90;;;;;;4967800;28;20035;-63
2021/10/05 11:54:55;;;;;;;4.00;0.50;;;15.90;99.90;;;;;;4968426;28;20103;-64
2021/10/05 11:57:31;;;;;;;4.72;0.52;;;15.80;99.90;;;;;;4971134;28;20042;-64
2021/10/05 12:00:07;;;;;;;2.35;0.20;;;15.70;99.90;;;;;;4965655;28;20529;-65
2021/10/05 12:02:36;;;;;;;2.22;0.13;;;15.60;99.90;;;;;;4967521;28;20125;-63
2021/10/05 12:05:02;;;;;;;8.75;0.95;;;15.50;99.90;;;;;;4965126;28;20038;-62
2021/10/05 12:07:28;;;;;;;3.17;0.50;;;15.40;99.90;;;;;;4969194;28;20061;-62
2021/10/05 12:10:01;;;;;;;3.72;0.75;;;15.30;99.90;;;;;;4968089;28;20023;-64
2021/10/05 12:12:30;;;;;;;3.13;0.30;;;15.20;99.90;;;;;;4968492;28;20031;-63
2021/10/05 12:15:00;;;;;;;1.95;0.40;;;15.20;99.90;;;;;;4967855;28;20050;-65
2021/10/05 12:17:26;;;;;;;2.25;0.30;;;15.00;99.90;;;;;;4968133;28;20034;-64
2021/10/05 12:19:59;;;;;;;3.13;0.38;;;14.90;99.90;;;;;;4967688;28;20038;-63
2021/10/05 12:22:29;;;;;;;2.15;0.20;;;14.80;99.90;;;;;;4967708;28;20495;-62
2021/10/05 12:25:03;;;;;;;8.40;0.20;;;14.60;99.90;;;;;;4967598;28;20234;-61
2021/10/05 12:27:35;;;;;;;3.08;0.40;;;14.40;99.90;;;;;;4969267;28;20520;-62
2021/10/05 12:30:12;;;;;;;1.08;0.43;;;14.30;99.90;;;;;;4966794;28;20031;-62
2021/10/05 12:32:48;;;;;;;0.95;0.25;;;14.20;99.90;;;;;;4963627;28;20047;-63
2021/10/05 12:35:30;;;;;;;1.52;0.43;;;14.20;99.90;;;;;;4968136;28;20038;-63
2021/10/05 12:38:03;;;;;;;0.55;0.22;;;14.10;99.90;;;;;;4966640;28;20573;-62
2021/10/05 12:40:50;;;;;;;4.60;0.50;;;14.10;99.90;;;;;;4961255;28;20621;-64
2021/10/05 12:43:21;;;;;;;5.25;0.60;;;14.00;99.90;;;;;;4966207;28;20446;-66
2021/10/05 12:45:57;;;;;;;0.95;0.30;;;14.00;99.90;;;;;;4968876;28;20115;-63
2021/10/05 12:48:35;;;;;;;5.93;1.20;;;13.90;99.90;;;;;;4956601;28;20053;-63
2021/10/05 12:51:25;;;;;;;0.65;0.30;;;13.90;99.90;;;;;;4965396;28;20089;-64